KBDE/BDE METAR and TAF weather

Enter ICAO airport designator
Station Type Date Time Source
KBDE METAR 2019/04/19 21:53 UTC NOAA

KBDE 192153Z AUTO 22014G20KT 10SM CLR 15/02 A2982 RMK AO2 SLP104 T01500022


Station Type Date Time Source
KBDE Decoded METAR 2019/04/19 21:53 UTC NOAA

BAUDETTE INTERNATIONAL AIRPORT, MN, United States (KBDE) 48-44N 94-37W 329M
Apr 19, 2019 - 05:53 PM EDT / 2019.04.19 2153 UTC
Wind: from the SW (220 degrees) at 16 MPH (14 KT) gusting to 23 MPH (20 KT):0
Visibility: 10 mile(s):0
Sky conditions: clear
Temperature: 59.0 F (15.0 C)
Dew Point: 36.0 F (2.2 C)
Relative Humidity: 41%
Pressure (altimeter): 29.82 in. Hg (1009 hPa)
ob: KBDE 192153Z AUTO 22014G20KT 10SM CLR 15/02 A2982 RMK AO2 SLP104 T01500022
cycle: 22

Station Type Date Time Source
KBDE TAF UTC NOAA

Error!

Example: see airport list